createdAt,value
2023-04-07T00:00:17.287Z,949.07
2023-04-07T00:02:44.662Z,949.19
2023-04-07T00:05:10.107Z,949.11
2023-04-07T00:07:44.892Z,949.13
2023-04-07T00:10:02.926Z,949.17
2023-04-07T00:12:29.304Z,949.14
2023-04-07T00:14:55.718Z,949.15
2023-04-07T00:17:22.179Z,949.10
2023-04-07T00:19:48.564Z,949.04
2023-04-07T00:22:14.968Z,949.09
2023-04-07T00:24:41.341Z,949.10
2023-04-07T00:27:07.964Z,949.05
2023-04-07T00:29:34.329Z,949.07
2023-04-07T00:32:00.706Z,949.04
2023-04-07T00:34:27.223Z,949.10
2023-04-07T00:36:53.590Z,949.10
2023-04-07T00:39:19.959Z,949.06
2023-04-07T00:41:46.371Z,949.10
2023-04-07T00:44:12.872Z,949.08
2023-04-07T00:46:39.190Z,949.12
2023-04-07T00:49:05.621Z,949.07
2023-04-07T00:51:32.023Z,949.07
2023-04-07T00:53:58.437Z,949.03
2023-04-07T00:56:24.851Z,949.04
2023-04-07T00:58:51.211Z,949.02
2023-04-07T01:01:17.609Z,949.04
2023-04-07T01:03:44.221Z,949.03
2023-04-07T01:06:10.356Z,949.02
2023-04-07T01:08:36.735Z,949.02
2023-04-07T01:11:03.135Z,949.00
2023-04-07T01:13:29.527Z,948.97
2023-04-07T01:15:55.953Z,948.98
2023-04-07T01:18:22.303Z,948.98
2023-04-07T01:20:48.696Z,949.00
2023-04-07T01:23:15.089Z,949.00
2023-04-07T01:25:41.493Z,948.95
2023-04-07T01:28:07.854Z,948.95
2023-04-07T01:30:34.228Z,948.99
2023-04-07T01:33:00.715Z,948.90
2023-04-07T01:35:27.043Z,948.97
2023-04-07T01:37:53.401Z,948.89
2023-04-07T01:40:19.857Z,948.87
2023-04-07T01:42:46.219Z,948.85
2023-04-07T01:45:12.599Z,948.92
2023-04-07T01:47:39.075Z,948.89
2023-04-07T01:50:05.421Z,948.94
2023-04-07T01:52:31.813Z,948.87
2023-04-07T01:54:58.219Z,948.90
2023-04-07T01:57:24.621Z,948.87
2023-04-07T01:59:51.033Z,948.77
2023-04-07T02:02:17.498Z,948.78
2023-04-07T02:04:43.854Z,948.79
2023-04-07T02:07:10.231Z,948.86
2023-04-07T02:09:36.643Z,948.78
2023-04-07T02:12:03.039Z,948.76
2023-04-07T02:14:29.448Z,948.74
2023-04-07T02:16:55.886Z,948.78
2023-04-07T02:19:22.246Z,948.79
2023-04-07T02:21:48.641Z,948.81
2023-04-07T02:24:14.986Z,948.77
2023-04-07T02:26:41.357Z,948.75
2023-04-07T02:29:07.721Z,948.81
2023-04-07T02:31:34.190Z,948.78
2023-04-07T02:34:00.564Z,948.83
2023-04-07T02:36:26.997Z,948.85
2023-04-07T02:38:53.361Z,948.77
2023-04-07T02:41:19.779Z,948.85
2023-04-07T02:43:46.261Z,948.87
2023-04-07T02:46:13.784Z,948.79
2023-04-07T02:48:39.086Z,948.81
2023-04-07T02:51:05.498Z,948.82
2023-04-07T02:53:31.868Z,948.92
2023-04-07T02:55:58.232Z,948.90
2023-04-07T02:58:24.944Z,948.84
2023-04-07T03:00:51.444Z,948.93
2023-04-07T03:03:18.069Z,948.88
2023-04-07T03:05:46.525Z,948.90
2023-04-07T03:08:13.265Z,948.85
2023-04-07T03:10:39.473Z,948.85
2023-04-07T03:13:05.914Z,948.87
2023-04-07T03:15:32.267Z,948.88
2023-04-07T03:17:58.713Z,948.85
2023-04-07T03:20:25.026Z,948.85
2023-04-07T03:22:51.476Z,948.87
2023-04-07T03:25:17.912Z,948.87
2023-04-07T03:27:44.280Z,948.78
2023-04-07T03:30:10.703Z,948.76
2023-04-07T03:32:37.355Z,948.72
2023-04-07T03:35:03.750Z,948.72
2023-04-07T03:37:30.117Z,948.80
2023-04-07T03:39:56.531Z,948.85
2023-04-07T03:42:22.945Z,948.87
2023-04-07T03:44:49.328Z,948.81
2023-04-07T03:47:15.736Z,948.85
2023-04-07T03:49:42.126Z,948.84
2023-04-07T03:52:08.546Z,948.87
2023-04-07T03:54:35.046Z,948.95
2023-04-07T03:57:01.551Z,948.90
2023-04-07T03:59:27.959Z,948.95
2023-04-07T04:01:54.341Z,948.95
2023-04-07T04:04:20.815Z,949.00
2023-04-07T04:06:47.078Z,949.02
2023-04-07T04:09:13.488Z,949.03
2023-04-07T04:11:39.963Z,949.08
2023-04-07T04:14:06.328Z,949.11
2023-04-07T04:16:32.793Z,949.14
2023-04-07T04:18:59.156Z,949.11
2023-04-07T04:21:25.523Z,949.12
2023-04-07T04:23:53.986Z,949.09
2023-04-07T04:26:18.336Z,949.16
2023-04-07T04:28:44.709Z,949.19
2023-04-07T04:31:11.140Z,949.22
2023-04-07T04:33:37.638Z,949.30
2023-04-07T04:36:04.015Z,949.28
2023-04-07T04:38:30.466Z,949.29
2023-04-07T04:40:56.833Z,949.30
2023-04-07T04:43:23.218Z,949.34
2023-04-07T04:45:49.692Z,949.33
2023-04-07T04:48:16.091Z,949.32
2023-04-07T04:50:42.454Z,949.35
2023-04-07T04:53:08.833Z,949.34
2023-04-07T04:55:35.238Z,949.39
2023-04-07T04:58:01.622Z,949.33
2023-04-07T05:00:28.121Z,949.45
2023-04-07T05:02:54.577Z,949.47
2023-04-07T05:05:20.855Z,949.43
2023-04-07T05:07:47.252Z,949.48
2023-04-07T05:10:13.705Z,949.49
2023-04-07T05:12:40.058Z,949.54
2023-04-07T05:15:06.433Z,949.57
2023-04-07T05:17:32.860Z,949.55
2023-04-07T05:19:59.222Z,949.58
2023-04-07T05:22:25.665Z,949.61
2023-04-07T05:24:52.070Z,949.61
2023-04-07T05:27:18.483Z,949.61
2023-04-07T05:29:44.891Z,949.55
2023-04-07T05:32:11.360Z,949.60
2023-04-07T05:34:37.819Z,949.59
2023-04-07T05:37:04.205Z,949.64
2023-04-07T05:39:30.786Z,949.65
2023-04-07T05:41:57.364Z,949.68
2023-04-07T05:44:23.732Z,949.64
2023-04-07T05:46:50.419Z,949.67
2023-04-07T05:49:20.190Z,949.63
2023-04-07T05:51:43.260Z,949.65
2023-04-07T05:54:09.697Z,949.66
2023-04-07T05:56:36.069Z,949.66
2023-04-07T05:59:02.508Z,949.62
2023-04-07T06:01:28.955Z,949.67
2023-04-07T06:03:55.411Z,949.69
2023-04-07T06:06:21.847Z,949.65
2023-04-07T06:08:48.491Z,949.67
2023-04-07T06:11:14.989Z,949.69
2023-04-07T06:13:41.428Z,949.61
2023-04-07T06:16:07.966Z,949.59
2023-04-07T06:18:34.387Z,949.68
2023-04-07T06:21:00.884Z,949.68
2023-04-07T06:23:27.496Z,949.68
2023-04-07T06:25:53.972Z,949.71
2023-04-07T06:28:20.406Z,949.62
2023-04-07T06:30:46.910Z,949.65
2023-04-07T06:33:13.263Z,949.63
2023-04-07T06:35:39.644Z,949.61
2023-04-07T06:38:06.044Z,949.56
2023-04-07T06:40:32.499Z,949.65
2023-04-07T06:42:58.897Z,949.63
2023-04-07T06:45:25.265Z,949.59
2023-04-07T06:47:51.734Z,949.66
2023-04-07T06:50:18.088Z,949.68
2023-04-07T06:52:44.554Z,949.66
2023-04-07T06:55:10.958Z,949.64
2023-04-07T06:57:37.375Z,949.60
2023-04-07T07:00:03.806Z,949.65
2023-04-07T07:02:30.513Z,949.69
2023-04-07T07:04:56.824Z,949.57
2023-04-07T07:07:23.199Z,949.61
2023-04-07T07:09:49.633Z,949.65
2023-04-07T07:12:15.993Z,949.72
2023-04-07T07:14:42.376Z,949.67
2023-04-07T07:17:08.824Z,949.67
2023-04-07T07:19:35.493Z,949.67
2023-04-07T07:22:01.673Z,949.68
2023-04-07T07:24:28.084Z,949.70
2023-04-07T07:26:54.451Z,949.72
2023-04-07T07:29:20.962Z,949.77
2023-04-07T07:31:47.402Z,949.82
2023-04-07T07:34:13.777Z,949.80
2023-04-07T07:36:40.178Z,949.84
2023-04-07T07:39:06.588Z,949.88
2023-04-07T07:41:32.966Z,949.85
2023-04-07T07:43:59.415Z,949.86
2023-04-07T07:46:25.928Z,949.87
2023-04-07T07:48:52.259Z,949.81
2023-04-07T07:51:18.687Z,949.86
2023-04-07T07:53:45.171Z,949.83
2023-04-07T07:56:11.473Z,949.84
2023-04-07T07:58:37.989Z,949.84
2023-04-07T08:01:04.406Z,949.85
2023-04-07T08:03:31.020Z,949.82
2023-04-07T08:05:57.293Z,949.79
2023-04-07T08:08:23.660Z,949.72
2023-04-07T08:10:50.101Z,949.77
2023-04-07T08:13:16.606Z,949.82
2023-04-07T08:15:43.098Z,949.89
2023-04-07T08:18:09.511Z,949.89
2023-04-07T08:20:35.858Z,949.83
2023-04-07T08:23:02.289Z,949.83
2023-04-07T08:25:28.720Z,949.79
2023-04-07T08:27:55.156Z,949.82
2023-04-07T08:30:21.624Z,949.78
2023-04-07T08:32:48.051Z,949.84
2023-04-07T08:35:14.450Z,949.79
2023-04-07T08:37:40.838Z,949.78
2023-04-07T08:40:07.406Z,949.88
2023-04-07T08:42:33.888Z,949.81
2023-04-07T08:45:01.043Z,949.79
2023-04-07T08:47:26.700Z,949.80
2023-04-07T08:49:53.054Z,949.81
2023-04-07T08:52:19.524Z,949.84
2023-04-07T08:54:45.974Z,949.81
2023-04-07T08:57:12.566Z,949.78
2023-04-07T08:59:38.982Z,949.83
2023-04-07T09:02:05.637Z,949.85
2023-04-07T09:04:31.969Z,949.84
2023-04-07T09:06:58.757Z,949.86
2023-04-07T09:09:25.156Z,949.84
2023-04-07T09:11:51.531Z,949.89
2023-04-07T09:14:17.913Z,949.97
2023-04-07T09:16:44.407Z,949.94
2023-04-07T09:19:10.773Z,949.89
2023-04-07T09:21:37.168Z,949.88
2023-04-07T09:24:03.541Z,949.89
2023-04-07T09:26:29.914Z,949.81
2023-04-07T09:28:56.483Z,949.80
2023-04-07T09:31:22.919Z,949.77
2023-04-07T09:33:49.502Z,949.76
2023-04-07T09:36:15.715Z,949.78
2023-04-07T09:38:42.021Z,949.81
2023-04-07T09:41:08.470Z,949.83
2023-04-07T09:43:34.826Z,949.81
2023-04-07T09:46:01.262Z,949.82
2023-04-07T09:48:27.647Z,949.80
2023-04-07T09:50:54.098Z,949.84
2023-04-07T09:53:20.462Z,949.88
2023-04-07T09:55:46.890Z,949.99
2023-04-07T09:58:13.255Z,949.97
2023-04-07T10:00:39.670Z,949.93
2023-04-07T10:03:06.201Z,950.00
2023-04-07T10:05:32.506Z,949.88
2023-04-07T10:07:58.915Z,949.95
2023-04-07T10:10:25.353Z,949.87
2023-04-07T10:12:51.787Z,949.91
2023-04-07T10:15:18.163Z,949.87
2023-04-07T10:17:44.606Z,949.86
2023-04-07T10:20:10.962Z,949.94
2023-04-07T10:22:37.376Z,949.91
2023-04-07T10:25:03.808Z,949.92
2023-04-07T10:27:30.241Z,949.87
2023-04-07T10:29:56.652Z,949.89
2023-04-07T10:32:23.122Z,949.90
2023-04-07T10:34:49.555Z,949.93
2023-04-07T10:37:15.982Z,950.02
2023-04-07T10:39:42.365Z,950.06
2023-04-07T10:42:08.766Z,950.06
2023-04-07T10:44:35.221Z,950.01
2023-04-07T10:47:01.611Z,950.02
2023-04-07T10:49:28.402Z,950.01
2023-04-07T10:51:54.833Z,950.07
2023-04-07T10:54:21.281Z,950.06
2023-04-07T10:56:47.721Z,950.11
2023-04-07T10:59:14.146Z,950.08
2023-04-07T11:01:40.618Z,950.10
2023-04-07T11:04:07.086Z,950.16
2023-04-07T11:06:33.345Z,950.17
2023-04-07T11:08:59.769Z,950.15
2023-04-07T11:11:26.358Z,950.19
2023-04-07T11:13:52.792Z,950.17
2023-04-07T11:16:20.433Z,950.16
2023-04-07T11:18:46.752Z,950.15
2023-04-07T11:21:13.153Z,950.13
2023-04-07T11:23:39.784Z,950.19
2023-04-07T11:26:06.222Z,950.18
2023-04-07T11:28:32.591Z,950.24
2023-04-07T11:30:59.062Z,950.25
2023-04-07T11:33:25.407Z,950.20
2023-04-07T11:35:51.828Z,950.23
2023-04-07T11:38:18.194Z,950.25
2023-04-07T11:40:44.582Z,950.25
2023-04-07T11:43:10.988Z,950.21
2023-04-07T11:45:37.466Z,950.24
2023-04-07T11:48:03.957Z,950.19
2023-04-07T11:50:31.456Z,950.27
2023-04-07T11:52:57.958Z,950.29
2023-04-07T11:55:24.425Z,950.22
2023-04-07T11:57:50.799Z,950.19
2023-04-07T12:00:19.490Z,950.30
2023-04-07T12:02:47.436Z,950.30
2023-04-07T12:05:13.699Z,950.18
2023-04-07T12:07:39.992Z,950.18
2023-04-07T12:10:06.403Z,950.19
2023-04-07T12:12:32.818Z,950.13
2023-04-07T12:14:59.237Z,950.12
2023-04-07T12:17:25.624Z,950.08
2023-04-07T12:19:52.079Z,950.24
2023-04-07T12:22:18.478Z,950.20
2023-04-07T12:24:44.882Z,950.21
2023-04-07T12:27:11.345Z,950.12
2023-04-07T12:29:37.762Z,950.16
2023-04-07T12:32:04.243Z,950.16
2023-04-07T12:34:30.662Z,950.22
2023-04-07T12:36:57.130Z,950.23
2023-04-07T12:39:23.505Z,950.25
2023-04-07T12:41:49.893Z,950.15
2023-04-07T12:44:17.437Z,950.12
2023-04-07T12:46:43.822Z,950.13
2023-04-07T12:49:10.283Z,950.05
2023-04-07T12:51:36.692Z,950.11
2023-04-07T12:54:03.097Z,950.19
2023-04-07T12:56:29.529Z,950.17
2023-04-07T12:58:55.940Z,950.11
2023-04-07T13:01:22.451Z,950.18
2023-04-07T13:03:49.265Z,950.22
2023-04-07T13:06:15.373Z,950.19
2023-04-07T13:08:41.737Z,950.33
2023-04-07T13:11:08.180Z,950.29
2023-04-07T13:13:34.545Z,950.29
2023-04-07T13:16:00.973Z,950.28
2023-04-07T13:18:27.380Z,950.31
2023-04-07T13:21:14.337Z,950.28
2023-04-07T13:23:20.279Z,950.26
2023-04-07T13:25:46.668Z,950.22
2023-04-07T13:28:13.044Z,950.30
2023-04-07T13:30:41.571Z,950.33
2023-04-07T13:33:08.021Z,950.31
2023-04-07T13:35:34.421Z,950.35
2023-04-07T13:38:01.793Z,950.32
2023-04-07T13:40:28.254Z,950.45
2023-04-07T13:42:54.652Z,950.45
2023-04-07T13:45:21.092Z,950.51
2023-04-07T13:47:47.552Z,950.53
2023-04-07T13:50:13.906Z,950.55
2023-04-07T13:52:40.270Z,950.53
2023-04-07T13:55:06.693Z,950.56
2023-04-07T13:57:33.063Z,950.57
2023-04-07T13:59:59.497Z,950.59
2023-04-07T14:02:26.081Z,950.70
2023-04-07T14:04:52.349Z,950.64
2023-04-07T14:07:18.715Z,950.67
2023-04-07T14:09:45.188Z,950.70
2023-04-07T14:12:11.598Z,950.77
2023-04-07T14:14:37.976Z,950.71
2023-04-07T14:17:04.402Z,950.82
2023-04-07T14:19:30.829Z,950.81
2023-04-07T14:21:57.243Z,950.89
2023-04-07T14:24:23.653Z,950.88
2023-04-07T14:26:50.065Z,950.93
2023-04-07T14:29:16.793Z,950.87
2023-04-07T14:31:43.204Z,950.87
2023-04-07T14:34:09.628Z,950.85
2023-04-07T14:36:35.996Z,950.85
2023-04-07T14:39:02.370Z,950.88
2023-04-07T14:41:28.786Z,950.83
2023-04-07T14:43:55.204Z,950.85
2023-04-07T14:46:21.649Z,950.90
2023-04-07T14:48:48.121Z,950.90
2023-04-07T14:51:14.519Z,950.86
2023-04-07T14:53:41.042Z,950.97
2023-04-07T14:56:07.484Z,950.94
2023-04-07T14:58:33.835Z,951.04
2023-04-07T15:01:00.246Z,951.09
2023-04-07T15:03:26.770Z,951.10
2023-04-07T15:05:53.059Z,951.11
2023-04-07T15:08:19.410Z,951.10
2023-04-07T15:10:52.976Z,951.13
2023-04-07T15:13:19.462Z,951.08
2023-04-07T15:15:45.900Z,951.16
2023-04-07T15:18:12.344Z,951.10
2023-04-07T15:20:38.730Z,951.15
2023-04-07T15:23:05.125Z,951.15
2023-04-07T15:25:31.522Z,951.19
2023-04-07T15:27:57.992Z,951.19
2023-04-07T15:30:24.392Z,951.21
2023-04-07T15:32:50.941Z,951.14
2023-04-07T15:35:17.312Z,951.17
2023-04-07T15:37:43.718Z,951.23
2023-04-07T15:40:10.114Z,951.23
2023-04-07T15:42:37.251Z,951.24
2023-04-07T15:45:03.635Z,951.26
2023-04-07T15:47:30.008Z,951.27
2023-04-07T15:49:56.423Z,951.26
2023-04-07T15:52:22.819Z,951.31
2023-04-07T15:54:49.271Z,951.31
2023-04-07T15:57:17.994Z,951.33
2023-04-07T15:59:44.403Z,951.36
2023-04-07T16:02:13.028Z,951.31
2023-04-07T16:04:37.330Z,951.32
2023-04-07T16:07:03.769Z,951.35
2023-04-07T16:09:30.103Z,951.37
2023-04-07T16:11:56.650Z,951.42
2023-04-07T16:14:23.051Z,951.44
2023-04-07T16:16:49.565Z,951.51
2023-04-07T16:19:17.614Z,951.51
2023-04-07T16:21:42.607Z,951.57
2023-04-07T16:24:08.874Z,951.57
2023-04-07T16:26:35.278Z,951.60
2023-04-07T16:29:01.664Z,951.65
2023-04-07T16:31:28.112Z,951.65
2023-04-07T16:33:54.503Z,951.67
2023-04-07T16:36:21.038Z,951.68
2023-04-07T16:38:47.458Z,951.69
2023-04-07T16:41:13.814Z,951.72
2023-04-07T16:43:40.215Z,951.77
2023-04-07T16:46:06.709Z,951.80
2023-04-07T16:48:33.024Z,951.80
2023-04-07T16:50:59.425Z,951.86
2023-04-07T16:53:25.959Z,951.87
2023-04-07T16:55:52.355Z,951.79
2023-04-07T16:58:18.997Z,951.93
2023-04-07T17:00:45.301Z,951.94
2023-04-07T17:03:11.819Z,951.92
2023-04-07T17:05:38.052Z,951.95
2023-04-07T17:08:04.487Z,951.98
2023-04-07T17:10:30.887Z,952.04
2023-04-07T17:12:57.301Z,952.05
2023-04-07T17:15:23.671Z,952.11
2023-04-07T17:17:50.218Z,952.12
2023-04-07T17:20:16.514Z,952.11
2023-04-07T17:22:43.082Z,952.10
2023-04-07T17:25:09.720Z,952.18
2023-04-07T17:27:36.115Z,952.19
2023-04-07T17:30:02.522Z,952.15
2023-04-07T17:32:29.252Z,952.26
2023-04-07T17:34:55.870Z,952.25
2023-04-07T17:37:22.303Z,952.30
2023-04-07T17:39:48.746Z,952.28
2023-04-07T17:42:15.148Z,952.34
2023-04-07T17:44:41.564Z,952.38
2023-04-07T17:47:08.083Z,952.41
2023-04-07T17:49:34.434Z,952.52
2023-04-07T17:52:00.852Z,952.48
2023-04-07T17:54:30.075Z,952.55
2023-04-07T17:56:53.963Z,952.57
2023-04-07T17:59:20.307Z,952.59
2023-04-07T18:01:46.750Z,952.58
2023-04-07T18:04:13.449Z,952.65
2023-04-07T18:06:39.718Z,952.73
2023-04-07T18:09:06.180Z,952.72
2023-04-07T18:11:32.606Z,952.75
2023-04-07T18:13:59.305Z,952.74
2023-04-07T18:16:25.798Z,952.75
2023-04-07T18:18:52.139Z,952.74
2023-04-07T18:21:18.556Z,952.76
2023-04-07T18:23:44.981Z,952.82
2023-04-07T18:26:11.585Z,952.81
2023-04-07T18:28:37.950Z,952.86
2023-04-07T18:31:04.348Z,952.86
2023-04-07T18:33:30.742Z,952.81
2023-04-07T18:35:57.203Z,952.81
2023-04-07T18:38:23.566Z,952.84
2023-04-07T18:40:49.980Z,952.91
2023-04-07T18:43:17.362Z,952.97
2023-04-07T18:45:45.191Z,952.91
2023-04-07T18:48:11.745Z,952.83
2023-04-07T18:50:38.120Z,952.89
2023-04-07T18:53:04.495Z,952.92
2023-04-07T18:55:30.983Z,952.90
2023-04-07T18:57:57.410Z,952.86
2023-04-07T19:00:23.794Z,952.88
2023-04-07T19:02:51.467Z,952.89
2023-04-07T19:05:20.987Z,952.88
2023-04-07T19:07:44.186Z,952.88
2023-04-07T19:10:10.657Z,952.79
2023-04-07T19:12:37.278Z,952.79
2023-04-07T19:15:05.821Z,952.77
2023-04-07T19:17:32.221Z,952.85
2023-04-07T19:19:58.634Z,952.87
2023-04-07T19:22:25.047Z,952.85
2023-04-07T19:24:51.509Z,952.87
2023-04-07T19:27:17.915Z,952.85
2023-04-07T19:29:44.377Z,952.88
2023-04-07T19:32:10.798Z,952.85
2023-04-07T19:34:37.218Z,952.92
2023-04-07T19:37:03.544Z,952.89
2023-04-07T19:39:31.128Z,952.90
2023-04-07T19:41:57.558Z,952.85
2023-04-07T19:44:23.977Z,952.81
2023-04-07T19:46:50.407Z,952.85
2023-04-07T19:49:17.104Z,952.84
2023-04-07T19:51:43.541Z,952.90
2023-04-07T19:54:09.919Z,952.93
2023-04-07T19:56:36.289Z,952.90
2023-04-07T19:59:05.264Z,952.95
2023-04-07T20:01:31.700Z,952.91
2023-04-07T20:03:58.096Z,952.91
2023-04-07T20:06:24.812Z,952.89
2023-04-07T20:08:51.371Z,952.90
2023-04-07T20:11:17.581Z,952.92
2023-04-07T20:13:44.135Z,952.94
2023-04-07T20:16:10.626Z,952.96
2023-04-07T20:18:36.909Z,953.00
2023-04-07T20:21:03.374Z,953.00
2023-04-07T20:23:29.902Z,953.01
2023-04-07T20:25:56.288Z,953.04
2023-04-07T20:28:22.700Z,953.01
2023-04-07T20:30:49.138Z,953.03
2023-04-07T20:33:15.550Z,953.07
2023-04-07T20:35:41.996Z,953.06
2023-04-07T20:38:08.322Z,953.04
2023-04-07T20:40:34.696Z,953.05
2023-04-07T20:43:01.163Z,953.07
2023-04-07T20:45:27.582Z,953.03
2023-04-07T20:47:54.022Z,953.02
2023-04-07T20:50:20.573Z,953.01
2023-04-07T20:52:46.967Z,952.95
2023-04-07T20:55:13.366Z,953.01
2023-04-07T20:57:40.136Z,953.04
2023-04-07T21:00:06.518Z,953.06
2023-04-07T21:02:33.001Z,953.09
2023-04-07T21:04:59.307Z,953.08
2023-04-07T21:07:25.935Z,953.13
2023-04-07T21:09:52.334Z,953.12
2023-04-07T21:12:18.748Z,953.13
2023-04-07T21:14:45.108Z,953.12
2023-04-07T21:17:11.621Z,953.09
2023-04-07T21:19:38.020Z,953.10
2023-04-07T21:22:04.571Z,953.01
2023-04-07T21:24:31.007Z,953.09
2023-04-07T21:26:57.391Z,953.20
2023-04-07T21:29:23.803Z,953.12
2023-04-07T21:31:50.391Z,953.15
2023-04-07T21:34:16.764Z,953.17
2023-04-07T21:36:43.252Z,953.18
2023-04-07T21:39:09.616Z,953.18
2023-04-07T21:41:36.027Z,953.13
2023-04-07T21:44:02.424Z,953.24
2023-04-07T21:46:28.899Z,953.18
2023-04-07T21:48:55.221Z,953.13
2023-04-07T21:51:21.598Z,953.18
2023-04-07T21:53:47.987Z,953.12
2023-04-07T21:56:14.397Z,953.18
2023-04-07T21:58:40.819Z,953.20
2023-04-07T22:01:07.184Z,953.18
2023-04-07T22:03:33.697Z,953.20
2023-04-07T22:05:59.982Z,953.28
2023-04-07T22:08:26.343Z,953.22
2023-04-07T22:10:52.830Z,953.25
2023-04-07T22:13:19.217Z,953.25
2023-04-07T22:15:45.646Z,953.25
2023-04-07T22:18:13.534Z,953.28
2023-04-07T22:20:38.454Z,953.24
2023-04-07T22:23:04.819Z,953.24
2023-04-07T22:25:31.212Z,953.20
2023-04-07T22:27:57.614Z,953.21
2023-04-07T22:30:24.012Z,953.21
2023-04-07T22:32:50.458Z,953.25
2023-04-07T22:35:16.830Z,953.27
2023-04-07T22:37:43.273Z,953.26
2023-04-07T22:40:09.646Z,953.21
2023-04-07T22:42:36.049Z,953.25
2023-04-07T22:45:02.483Z,953.16
2023-04-07T22:47:28.904Z,953.14
2023-04-07T22:49:55.258Z,953.13
2023-04-07T22:52:21.667Z,953.16
2023-04-07T22:54:48.085Z,953.14
2023-04-07T22:57:14.436Z,953.20
2023-04-07T22:59:40.858Z,953.10
2023-04-07T23:02:07.436Z,953.02
2023-04-07T23:04:33.699Z,953.11
2023-04-07T23:07:00.074Z,953.06
2023-04-07T23:09:26.475Z,953.12
2023-04-07T23:11:52.890Z,953.05
2023-04-07T23:14:19.260Z,953.08
2023-04-07T23:16:45.694Z,953.06
2023-04-07T23:19:12.110Z,953.01
2023-04-07T23:21:38.475Z,952.98
2023-04-07T23:24:04.755Z,952.92
2023-04-07T23:26:31.094Z,952.89
2023-04-07T23:28:57.469Z,952.87
2023-04-07T23:31:23.881Z,952.87
2023-04-07T23:33:50.373Z,952.83
2023-04-07T23:36:16.734Z,952.84
2023-04-07T23:38:43.129Z,952.87
2023-04-07T23:41:11.387Z,952.83
2023-04-07T23:43:35.952Z,952.82
2023-04-07T23:46:02.580Z,952.73
2023-04-07T23:48:28.906Z,952.73
2023-04-07T23:50:55.323Z,952.76
2023-04-07T23:53:21.798Z,952.72
2023-04-07T23:55:48.152Z,952.69
2023-04-07T23:58:14.562Z,952.66
